createdAt,value
2022-11-18T00:02:34.100Z,2.13
2022-11-18T00:07:56.137Z,2.05
2022-11-18T00:13:37.636Z,1.93
2022-11-18T00:18:59.668Z,2.00
2022-11-18T00:24:21.700Z,2.04
2022-11-18T00:29:43.523Z,2.05
2022-11-18T00:35:06.451Z,2.11
2022-11-18T00:40:28.288Z,2.17
2022-11-18T00:45:50.270Z,2.18
2022-11-18T00:51:16.201Z,2.17
2022-11-18T00:56:38.086Z,2.23
2022-11-18T01:01:59.918Z,2.27
2022-11-18T01:07:21.990Z,2.15
2022-11-18T01:13:02.450Z,1.98
2022-11-18T01:18:27.590Z,1.94
2022-11-18T01:23:49.311Z,1.94
2022-11-18T01:29:11.138Z,1.87
2022-11-18T01:34:32.967Z,1.81
2022-11-18T01:39:54.812Z,1.85
2022-11-18T01:45:40.038Z,1.95
2022-11-18T01:51:08.883Z,2.02
2022-11-18T01:56:38.319Z,2.14
2022-11-18T02:02:01.287Z,1.91
2022-11-18T02:07:24.913Z,1.72
2022-11-18T02:12:47.164Z,1.76
2022-11-18T02:18:24.137Z,1.78
2022-11-18T02:24:14.025Z,1.65
2022-11-18T02:29:44.427Z,1.56
2022-11-18T02:35:29.560Z,1.59
2022-11-18T02:40:59.130Z,1.65
2022-11-18T02:46:25.837Z,1.59
2022-11-18T02:51:47.827Z,1.61
2022-11-18T02:57:09.554Z,1.76
2022-11-18T03:02:42.996Z,1.98
2022-11-18T03:08:12.936Z,2.02
2022-11-18T03:13:43.542Z,1.86
2022-11-18T03:19:29.857Z,1.75
2022-11-18T03:25:01.856Z,1.80
2022-11-18T03:30:24.213Z,1.89
2022-11-18T03:35:48.392Z,2.04
2022-11-18T03:41:12.006Z,2.06
2022-11-18T03:46:41.280Z,2.02
2022-11-18T03:52:11.691Z,1.82
2022-11-18T03:58:01.418Z,1.62
2022-11-18T04:03:26.190Z,1.50
2022-11-18T04:08:51.005Z,1.45
2022-11-18T04:14:14.379Z,1.49
2022-11-18T04:19:36.510Z,1.44
2022-11-18T04:24:58.439Z,1.37
2022-11-18T04:30:20.570Z,1.38
2022-11-18T04:35:42.699Z,1.36
2022-11-18T04:41:04.932Z,1.21
2022-11-18T04:46:26.967Z,1.25
2022-11-18T04:51:49.390Z,1.19
2022-11-18T04:57:11.219Z,1.15
2022-11-18T05:02:33.048Z,1.22
2022-11-18T05:07:55.172Z,1.54
2022-11-18T05:13:17.410Z,1.61
2022-11-18T05:18:39.639Z,1.62
2022-11-18T05:24:02.589Z,1.54
2022-11-18T05:29:24.701Z,1.53
2022-11-18T05:34:46.510Z,1.55
2022-11-18T05:40:09.542Z,1.48
2022-11-18T05:45:31.602Z,1.44
2022-11-18T05:50:54.579Z,1.54
2022-11-18T05:56:39.636Z,1.56
2022-11-18T06:02:05.354Z,1.51
2022-11-18T06:07:32.134Z,1.49
2022-11-18T06:12:56.672Z,1.49
2022-11-18T06:18:23.815Z,1.43
2022-11-18T06:23:46.160Z,1.48
2022-11-18T06:29:08.831Z,1.48
2022-11-18T06:40:11.518Z,1.38
2022-11-18T06:45:33.097Z,1.33
2022-11-18T06:50:55.201Z,1.23
2022-11-18T06:56:19.417Z,1.30
2022-11-18T07:01:42.326Z,1.61
2022-11-18T07:07:04.011Z,1.72
2022-11-18T07:12:25.628Z,1.74
2022-11-18T07:17:47.558Z,1.70
2022-11-18T07:23:09.484Z,1.85
2022-11-18T07:28:31.220Z,1.70
2022-11-18T07:33:56.106Z,1.46
2022-11-18T07:39:18.736Z,1.37
2022-11-18T07:44:41.075Z,1.41
2022-11-18T07:50:03.139Z,1.44
2022-11-18T07:55:30.838Z,1.54
2022-11-18T08:00:54.517Z,1.71
2022-11-18T08:06:18.513Z,1.64
2022-11-18T08:11:41.072Z,1.59
2022-11-18T08:17:03.143Z,1.59
2022-11-18T08:22:25.106Z,1.59
2022-11-18T08:27:47.342Z,1.61
2022-11-18T08:33:09.377Z,1.62
2022-11-18T08:38:31.406Z,1.64
2022-11-18T08:43:53.495Z,1.68
2022-11-18T08:49:15.827Z,1.55
2022-11-18T08:54:38.074Z,1.52
2022-11-18T08:59:59.683Z,1.52
2022-11-18T09:05:21.757Z,1.48
2022-11-18T09:10:43.591Z,1.35
2022-11-18T09:16:06.465Z,1.23
2022-11-18T09:21:27.549Z,1.29
2022-11-18T09:26:50.048Z,1.37
2022-11-18T09:32:12.233Z,1.41
2022-11-18T09:37:34.704Z,1.40
2022-11-18T09:43:08.000Z,1.44
2022-11-18T09:48:48.440Z,1.33
2022-11-18T09:54:14.073Z,1.21
2022-11-18T09:59:36.171Z,1.20
2022-11-18T10:05:07.707Z,1.20
2022-11-18T10:10:52.091Z,1.08
2022-11-18T10:16:57.813Z,1.00
2022-11-18T10:22:24.659Z,0.97
2022-11-18T10:27:48.481Z,1.00
2022-11-18T10:33:22.195Z,0.96
2022-11-18T10:38:49.757Z,0.93
2022-11-18T10:44:33.503Z,0.94
2022-11-18T10:50:35.086Z,0.97
2022-11-18T10:56:02.095Z,0.97
2022-11-18T11:01:27.353Z,0.98
2022-11-18T11:06:49.303Z,0.97
2022-11-18T11:12:17.316Z,0.90
2022-11-18T11:17:44.911Z,0.77
2022-11-18T11:23:11.127Z,0.80
2022-11-18T11:28:53.894Z,0.81
2022-11-18T11:34:42.381Z,0.77
2022-11-18T11:40:26.358Z,0.71
2022-11-18T11:45:50.671Z,0.65
2022-11-18T11:51:12.713Z,0.72
2022-11-18T11:56:40.009Z,0.87
2022-11-18T12:02:36.201Z,0.78
2022-11-18T12:08:08.778Z,0.64
2022-11-18T12:13:51.846Z,0.55
2022-11-18T12:19:18.813Z,0.44
2022-11-18T12:24:42.785Z,0.45
2022-11-18T12:30:04.943Z,0.47
2022-11-18T12:35:28.658Z,0.40
2022-11-18T12:40:52.964Z,0.37
2022-11-18T12:46:27.413Z,0.23
2022-11-18T12:51:51.779Z,0.14
2022-11-18T12:57:19.676Z,0.06
2022-11-18T13:02:54.395Z,-0.03
2022-11-18T13:08:17.883Z,-0.05
2022-11-18T13:13:40.382Z,-0.14
2022-11-18T13:19:02.313Z,-0.18
2022-11-18T13:24:24.185Z,-0.06
2022-11-18T13:29:55.855Z,0.02
2022-11-18T13:35:22.162Z,-0.03
2022-11-18T13:41:04.859Z,-0.08
2022-11-18T13:46:26.946Z,-0.05
2022-11-18T13:51:48.929Z,0.01
2022-11-18T13:57:20.913Z,0.02
2022-11-18T14:02:46.398Z,-0.01
2022-11-18T14:08:30.975Z,-0.00
2022-11-18T14:13:54.753Z,-0.11
2022-11-18T14:19:31.257Z,-0.11
2022-11-18T14:25:00.933Z,-0.12
2022-11-18T14:30:38.972Z,-0.12
2022-11-18T14:36:09.680Z,-0.13
2022-11-18T14:41:49.815Z,-0.11
2022-11-18T14:47:32.215Z,-0.06
2022-11-18T14:52:53.997Z,-0.09
2022-11-18T14:58:16.435Z,0.01
2022-11-18T15:03:38.866Z,0.10
2022-11-18T15:09:00.600Z,0.14
2022-11-18T15:14:22.322Z,0.07
2022-11-18T15:19:44.499Z,-0.07
2022-11-18T15:25:06.920Z,-0.13
2022-11-18T15:30:29.039Z,-0.20
2022-11-18T15:35:51.184Z,-0.19
2022-11-18T15:41:26.902Z,-0.22
2022-11-18T15:46:49.665Z,-0.26
2022-11-18T15:52:12.389Z,-0.45
2022-11-18T15:57:34.124Z,-0.55
2022-11-18T16:02:56.347Z,-0.55
2022-11-18T16:08:18.073Z,-0.51
2022-11-18T16:13:40.307Z,-0.52
2022-11-18T16:19:04.463Z,-0.49
2022-11-18T16:24:29.381Z,-0.41
2022-11-18T16:29:51.164Z,-0.29
2022-11-18T16:35:13.539Z,-0.26
2022-11-18T16:40:35.171Z,-0.17
2022-11-18T16:45:57.054Z,-0.15
2022-11-18T16:51:25.030Z,-0.13
2022-11-18T16:56:47.986Z,-0.16
2022-11-18T17:02:12.912Z,-0.33
2022-11-18T17:07:38.468Z,-0.42
2022-11-18T17:13:00.631Z,-0.40
2022-11-18T17:24:04.853Z,-0.43
2022-11-18T17:29:26.757Z,-0.45
2022-11-18T17:34:48.683Z,-0.57
2022-11-18T17:40:11.413Z,-0.49
2022-11-18T17:45:33.644Z,-0.34
2022-11-18T17:51:06.149Z,-0.31
2022-11-18T17:56:28.240Z,-0.32
2022-11-18T18:01:54.436Z,-0.28
2022-11-18T18:07:19.485Z,-0.31
2022-11-18T18:12:59.906Z,-0.36
2022-11-18T18:18:22.455Z,-0.53
2022-11-18T18:23:44.537Z,-0.57
2022-11-18T18:29:06.410Z,-0.53
2022-11-18T18:34:28.944Z,-0.49
2022-11-18T18:39:50.569Z,-0.48
2022-11-18T18:45:31.335Z,-0.56
2022-11-18T18:50:53.796Z,-0.57
2022-11-18T18:56:15.566Z,-0.57
2022-11-18T19:01:38.512Z,-0.62
2022-11-18T19:07:01.000Z,-0.61
2022-11-18T19:12:41.496Z,-0.59
2022-11-18T19:18:04.229Z,-0.49
2022-11-18T19:23:26.103Z,-0.41
2022-11-18T19:28:48.476Z,-0.47
2022-11-18T19:34:10.505Z,-0.42
2022-11-18T19:39:32.192Z,-0.34
2022-11-18T19:44:54.163Z,-0.35
2022-11-18T19:50:16.997Z,-0.46
2022-11-18T19:55:38.723Z,-0.46
2022-11-18T20:01:20.342Z,-0.39
2022-11-18T20:06:42.283Z,-0.33
2022-11-18T20:12:04.856Z,-0.30
2022-11-18T20:17:26.917Z,-0.21
2022-11-18T20:22:48.912Z,-0.21
2022-11-18T20:28:13.217Z,-0.21
2022-11-18T20:33:36.305Z,-0.16
2022-11-18T20:39:00.929Z,-0.12
2022-11-18T20:44:23.005Z,-0.16
2022-11-18T20:49:44.912Z,-0.27
2022-11-18T20:55:07.442Z,-0.30
2022-11-18T21:00:29.481Z,-0.38
2022-11-18T21:05:51.420Z,-0.41
2022-11-18T21:11:14.037Z,-0.26
2022-11-18T21:16:36.267Z,-0.29
2022-11-18T21:21:58.398Z,-0.35
2022-11-18T21:27:20.525Z,-0.41
2022-11-18T21:32:42.056Z,-0.38
2022-11-18T21:38:04.985Z,-0.34
2022-11-18T21:44:03.451Z,-0.17
2022-11-18T21:49:12.817Z,-0.11
2022-11-18T21:54:35.259Z,-0.16
2022-11-18T21:59:57.013Z,-0.21
2022-11-18T22:05:18.618Z,-0.23
2022-11-18T22:10:46.287Z,-0.15
2022-11-18T22:16:16.129Z,-0.01
2022-11-18T22:21:37.851Z,0.03
2022-11-18T22:26:59.557Z,0.00
2022-11-18T22:32:21.691Z,-0.01
2022-11-18T22:37:43.710Z,0.11
2022-11-18T22:43:05.605Z,0.23
2022-11-18T22:48:27.699Z,0.34
2022-11-18T22:53:49.930Z,0.32
2022-11-18T22:59:12.387Z,0.32
2022-11-18T23:04:34.405Z,0.24
2022-11-18T23:09:56.446Z,0.29
2022-11-18T23:15:18.753Z,0.30
2022-11-18T23:20:40.981Z,0.29
2022-11-18T23:26:11.853Z,0.29
2022-11-18T23:31:33.729Z,0.25
2022-11-18T23:36:55.730Z,0.12
2022-11-18T23:42:17.980Z,0.07
2022-11-18T23:47:39.861Z,0.11
2022-11-18T23:53:01.790Z,0.12
2022-11-18T23:58:24.220Z,0.12
